Time;durP1;ratioP1;P1;durP2;ratioP2;P2;SDS_P1;SDS_P2;PMS_P1;PMS_P2;Temp;Humidity;BMP_temperature;BMP_pressure;BME280_temperature;BME280_humidity;BME280_pressure;Samples;Min_cycle;Max_cycle;Signal;HPM_P1;HPM_P2
2023/05/05 00:02:57;;;;;;;;;;;;;;;20.29;53.31;101382.67;2261933;77;51970;-72
2023/05/05 00:05:59;;;;;;;;;;;;;;;20.29;53.40;101384.85;2288286;76;51357;-72
2023/05/05 00:09:01;;;;;;;;;;;;;;;20.28;53.49;101378.33;2281025;77;52425;-72
2023/05/05 00:12:02;;;;;;;;;;;;;;;20.28;53.58;101377.81;2232215;76;52283;-72
2023/05/05 00:15:04;;;;;;;;;;;;;;;20.28;53.42;101382.36;2328187;76;50112;-72
2023/05/05 00:18:06;;;;;;;;;;;;;;;20.28;53.56;101378.33;2328120;76;51435;-73
2023/05/05 00:21:07;;;;;;;;;;;;;;;20.29;53.53;101381.33;2294151;76;51416;-71
2023/05/05 00:24:09;;;;;;;;;;;;;;;20.29;53.42;101378.64;2268747;76;52435;-71
2023/05/05 00:27:11;;;;;;;;;;;;;;;20.28;53.48;101379.67;2328146;75;51369;-71
2023/05/05 00:30:12;;;;;;;;;;;;;;;20.27;53.57;101380.19;2310048;76;51441;-72
2023/05/05 00:33:14;;;;;;;;;;;;;;;20.27;53.68;101376.15;2334233;75;50683;-72
2023/05/05 00:36:15;;;;;;;;;;;;;;;20.27;53.81;101372.12;2274287;78;51467;-71
2023/05/05 00:39:17;;;;;;;;;;;;;;;20.27;54.03;101369.91;2238429;79;51432;-71
2023/05/05 00:42:19;;;;;;;;;;;;;;;20.27;53.92;101369.44;2279292;78;51363;-73
2023/05/05 00:45:20;;;;;;;;;;;;;;;20.27;53.81;101360.51;2278977;78;51517;-72
2023/05/05 00:48:24;;;;;;;;;;;;;;;20.26;54.16;101363.70;2250305;78;52279;-72
2023/05/05 00:51:25;;;;;;;;;;;;;;;20.26;53.89;101365.56;2279453;78;22485;-72
2023/05/05 00:54:27;;;;;;;;;;;;;;;20.23;54.03;101356.84;2278893;78;50198;-72
2023/05/05 00:57:28;;;;;;;;;;;;;;;20.24;54.16;101357.66;2279144;78;50573;-72
2023/05/05 01:00:30;;;;;;;;;;;;;;;20.24;54.08;101354.98;2292503;76;52472;-73
2023/05/05 01:03:31;;;;;;;;;;;;;;;20.25;54.08;101357.19;2281229;76;50179;-72
2023/05/05 01:06:35;;;;;;;;;;;;;;;20.23;54.10;101350.62;2317835;76;50249;-72
2023/05/05 01:09:38;;;;;;;;;;;;;;;20.23;54.06;101355.49;2318127;76;51471;-74
2023/05/05 01:12:57;;;;;;;;;;;;;;;20.23;54.25;101352.80;2293475;76;52538;-72
2023/05/05 01:16:01;;;;;;;;;;;;;;;20.24;54.34;101354.98;2317967;76;50615;-73
2023/05/05 01:19:22;;;;;;;;;;;;;;;20.23;54.55;101352.80;2317455;76;50266;-71
2023/05/05 01:22:26;;;;;;;;;;;;;;;20.23;54.56;101355.49;2318309;76;50651;-73
2023/05/05 01:25:32;;;;;;;;;;;;;;;20.23;54.55;101354.15;2316323;76;52487;-73
2023/05/05 01:28:35;;;;;;;;;;;;;;;20.23;54.64;101347.95;2317323;76;51496;-74
2023/05/05 01:31:41;;;;;;;;;;;;;;;20.22;54.63;101342.25;2291016;76;51380;-73
2023/05/05 01:34:54;;;;;;;;;;;;;;;20.21;54.81;101340.56;2318099;76;50275;-73
2023/05/05 01:38:00;;;;;;;;;;;;;;;20.20;54.71;101341.59;2293669;76;52555;-73
2023/05/05 01:41:03;;;;;;;;;;;;;;;20.21;54.75;101343.25;2317525;76;51444;-73
2023/05/05 01:44:05;;;;;;;;;;;;;;;20.21;54.68;101341.91;2318068;76;51433;-73
2023/05/05 01:47:07;;;;;;;;;;;;;;;20.21;54.60;101342.73;2318064;76;51349;-72
2023/05/05 01:50:08;;;;;;;;;;;;;;;20.22;54.64;101344.42;2293503;76;50980;-73
2023/05/05 01:53:10;;;;;;;;;;;;;;;20.21;54.61;101348.11;2318119;76;51549;-73
2023/05/05 01:56:12;;;;;;;;;;;;;;;20.21;54.66;101348.11;2293008;76;51598;-74
2023/05/05 01:59:13;;;;;;;;;;;;;;;20.20;54.64;101347.80;2318183;76;51395;-72
2023/05/05 02:02:15;;;;;;;;;;;;;;;20.20;54.71;101351.82;2275212;76;50943;-73
2023/05/05 02:05:18;;;;;;;;;;;;;;;20.21;54.62;101341.91;2296960;77;51423;-75
2023/05/05 02:08:20;;;;;;;;;;;;;;;20.22;54.58;101342.25;2275664;77;51534;-72
2023/05/05 02:11:21;;;;;;;;;;;;;;;20.21;54.59;101336.02;2297206;77;50610;-73
2023/05/05 02:14:23;;;;;;;;;;;;;;;20.21;54.69;101341.39;2297151;77;51456;-73
2023/05/05 02:17:24;;;;;;;;;;;;;;;20.20;54.56;101333.02;2297314;77;50677;-73
2023/05/05 02:20:26;;;;;;;;;;;;;;;20.20;54.64;101335.70;2297289;77;50565;-73
2023/05/05 02:23:28;;;;;;;;;;;;;;;20.19;54.74;101335.37;2297192;77;50253;-73
2023/05/05 02:26:30;;;;;;;;;;;;;;;20.19;54.79;101338.07;2277609;77;50976;-73
2023/05/05 02:29:32;;;;;;;;;;;;;;;20.18;54.81;101337.72;2305495;77;51252;-73
2023/05/05 02:32:34;;;;;;;;;;;;;;;20.19;54.71;101335.86;2289120;77;50646;-73
2023/05/05 02:35:37;;;;;;;;;;;;;;;20.19;54.74;101335.37;2298516;77;49941;-73
2023/05/05 02:38:39;;;;;;;;;;;;;;;20.18;54.76;101332.86;2305244;77;50971;-74
2023/05/05 02:41:40;;;;;;;;;;;;;;;;;;2298847;77;50799;-73
2023/05/05 02:44:42;;;;;;;;;;;;;;;20.16;54.81;101333.02;2298647;77;50622;-73
2023/05/05 02:47:43;;;;;;;;;;;;;;;20.16;54.81;101331.68;2298673;77;50565;-73
2023/05/05 02:50:44;;;;;;;;;;;;;;;;;;2298829;77;51384;-73
2023/05/05 02:53:46;;;;;;;;;;;;;;;20.18;54.87;101330.17;2298695;77;50635;-74
2023/05/05 02:56:48;;;;;;;;;;;;;;;20.17;54.90;101330.69;2298710;77;50188;-73
2023/05/05 02:59:51;;;;;;;;;;;;;;;20.18;54.99;101335.55;2298161;77;51560;-72
2023/05/05 03:03:01;;;;;;;;;;;;;;;20.16;55.08;101333.02;2293990;77;51480;-73
2023/05/05 03:06:04;;;;;;;;;;;;;;;20.18;54.93;101330.17;2277265;77;50553;-73
2023/05/05 03:09:07;;;;;;;;;;;;;;;20.16;54.99;101334.37;2308737;77;50186;-73
2023/05/05 03:12:09;;;;;;;;;;;;;;;20.16;54.93;101333.53;2310191;77;50645;-72
2023/05/05 03:15:11;;;;;;;;;;;;;;;20.16;54.99;101338.91;2312240;77;50810;-72
2023/05/05 03:18:14;;;;;;;;;;;;;;;20.15;54.84;101329.19;2280881;77;51612;-74
2023/05/05 03:21:16;;;;;;;;;;;;;;;20.15;54.91;101332.70;2281987;77;50558;-73
2023/05/05 03:24:18;;;;;;;;;;;;;;;20.15;54.95;101331.36;2311755;77;50666;-72
2023/05/05 03:27:19;;;;;;;;;;;;;;;20.14;54.87;101329.70;2312505;77;51654;-73
2023/05/05 03:30:21;;;;;;;;;;;;;;;20.14;54.84;101329.70;2264268;77;50485;-72
2023/05/05 03:33:22;;;;;;;;;;;;;;;20.14;54.88;101336.90;2268948;77;50608;-73
2023/05/05 03:36:24;;;;;;;;;;;;;;;20.13;54.83;101335.23;2286480;77;50969;-73
2023/05/05 03:39:26;;;;;;;;;;;;;;;20.14;54.79;101336.42;2300964;76;50633;-73
2023/05/05 03:42:27;;;;;;;;;;;;;;;20.15;54.67;101335.39;2302667;76;51638;-72
2023/05/05 03:45:29;;;;;;;;;;;;;;;20.14;54.79;101330.19;2332587;76;51582;-72
2023/05/05 03:48:31;;;;;;;;;;;;;;;20.13;54.77;101333.38;2274974;77;50611;-73
2023/05/05 03:51:32;;;;;;;;;;;;;;;20.13;54.72;101331.20;2290005;77;51619;-72
2023/05/05 03:54:34;;;;;;;;;;;;;;;20.14;54.79;101336.42;2246671;77;51917;-73
2023/05/05 03:57:35;;;;;;;;;;;;;;;20.13;54.87;101330.70;2262620;77;50558;-72
2023/05/05 04:00:37;;;;;;;;;;;;;;;20.13;54.80;101328.02;2282253;77;50633;-72
2023/05/05 04:03:39;;;;;;;;;;;;;;;20.15;54.79;101326.50;2290858;77;51501;-72
2023/05/05 04:06:40;;;;;;;;;;;;;;;20.15;54.76;101327.84;2227523;79;50062;-72
2023/05/05 04:09:43;;;;;;;;;;;;;;;20.13;54.83;101328.02;2253126;79;50261;-72
2023/05/05 04:12:45;;;;;;;;;;;;;;;20.14;54.76;101327.02;2252969;79;50870;-71
2023/05/05 04:15:46;;;;;;;;;;;;;;;20.14;54.74;101328.36;2252805;79;50596;-71
2023/05/05 04:18:48;;;;;;;;;;;;;;;20.14;54.79;101328.84;2252649;79;52385;-71
2023/05/05 04:21:50;;;;;;;;;;;;;;;20.13;54.80;101330.70;2253228;79;51416;-71
2023/05/05 04:24:52;;;;;;;;;;;;;;;20.13;54.75;101322.64;2220750;79;51462;-72
2023/05/05 04:27:54;;;;;;;;;;;;;;;20.12;54.89;101327.69;2221001;79;51455;-73
2023/05/05 04:30:56;;;;;;;;;;;;;;;20.12;54.82;101329.03;2200133;77;50107;-71
2023/05/05 04:33:57;;;;;;;;;;;;;;;20.13;54.83;101333.89;2259286;77;50260;-73
2023/05/05 04:36:59;;;;;;;;;;;;;;;20.12;54.81;101338.95;2253242;79;50590;-72
2023/05/05 04:40:00;;;;;;;;;;;;;;;20.11;54.81;101340.77;2253466;79;50599;-72
2023/05/05 04:43:02;;;;;;;;;;;;;;;20.10;54.79;101343.14;2221614;79;50880;-72
2023/05/05 04:46:04;;;;;;;;;;;;;;;20.13;54.67;101348.16;2253301;79;50726;-72
2023/05/05 04:49:05;;;;;;;;;;;;;;;20.12;54.73;101346.50;2221345;79;50269;-73
2023/05/05 04:52:07;;;;;;;;;;;;;;;20.13;54.52;101353.53;2221352;79;51502;-73
2023/05/05 04:55:10;;;;;;;;;;;;;;;20.13;54.34;101352.70;2197642;79;51331;-74
2023/05/05 04:58:12;;;;;;;;;;;;;;;20.13;54.29;101356.22;2222228;79;50280;-74
2023/05/05 05:01:13;;;;;;;;;;;;;;;20.18;54.60;101359.73;2232579;77;50612;-73
2023/05/05 05:04:17;;;;;;;;;;;;;;;20.18;55.65;101367.79;2222459;79;51437;-73
2023/05/05 05:07:18;;;;;;;;;;;;;;;20.16;55.62;101366.61;2254137;79;22241;-73
2023/05/05 05:10:20;;;;;;;;;;;;;;;20.19;55.11;101364.94;2253764;79;50241;-73
2023/05/05 05:13:21;;;;;;;;;;;;;;;20.22;54.55;101367.27;2258770;77;51461;-73
2023/05/05 05:16:24;;;;;;;;;;;;;;;20.24;54.75;101364.39;2290924;77;50629;-73
2023/05/05 05:19:25;;;;;;;;;;;;;;;20.28;54.54;101359.00;2257893;77;51340;-73
2023/05/05 05:22:27;;;;;;;;;;;;;;;20.33;54.57;101369.23;2291020;77;50354;-73
2023/05/05 05:25:29;;;;;;;;;;;;;;;20.41;54.08;101363.80;2291063;77;51444;-73
2023/05/05 05:28:30;;;;;;;;;;;;;;;20.46;53.54;101362.75;2291419;77;51740;-72
2023/05/05 05:31:33;;;;;;;;;;;;;;;20.49;53.09;101370.45;2290945;77;51330;-73
2023/05/05 05:34:34;;;;;;;;;;;;;;;20.57;52.46;101373.63;2282768;77;50621;-74
2023/05/05 05:37:36;;;;;;;;;;;;;;;20.60;51.90;101377.30;2306897;76;50235;-74
2023/05/05 05:40:38;;;;;;;;;;;;;;;20.66;51.56;101373.41;2307131;76;50730;-74
2023/05/05 05:43:40;;;;;;;;;;;;;;;20.69;51.20;101370.03;2281353;77;51148;-74
2023/05/05 05:46:42;;;;;;;;;;;;;;;20.74;50.85;101375.71;2307098;76;50719;-75
2023/05/05 05:49:43;;;;;;;;;;;;;;;20.76;50.84;101379.06;2304364;76;50588;-73
2023/05/05 05:52:45;;;;;;;;;;;;;;;20.96;50.48;101373.52;2307312;76;50081;-73
2023/05/05 05:55:46;;;;;;;;;;;;;;;21.03;50.25;101379.83;2268872;78;52425;-73
2023/05/05 05:58:48;;;;;;;;;;;;;;;21.08;50.31;101377.42;2265912;78;51623;-73
2023/05/05 06:01:50;;;;;;;;;;;;;;;21.16;49.77;101378.38;2257788;77;50645;-73
2023/05/05 06:04:52;;;;;;;;;;;;;;;21.17;49.31;101372.83;2264182;78;50393;-73
2023/05/05 06:07:53;;;;;;;;;;;;;;;21.19;49.27;101364.55;2250728;77;51220;-73
2023/05/05 06:10:55;;;;;;;;;;;;;;;21.22;49.31;101371.77;2283605;77;50715;-73
2023/05/05 06:13:57;;;;;;;;;;;;;;;21.29;49.44;101373.20;2250805;78;50589;-72
2023/05/05 06:16:59;;;;;;;;;;;;;;;21.33;49.61;101376.37;2251078;77;50240;-73
2023/05/05 06:20:00;;;;;;;;;;;;;;;21.28;49.80;101372.88;2226757;78;51164;-72
2023/05/05 06:23:02;;;;;;;;;;;;;;;21.18;49.88;101382.55;2251032;78;50404;-73
2023/05/05 06:26:04;;;;;;;;;;;;;;;21.17;49.93;101389.45;2283672;78;50229;-72
2023/05/05 06:29:05;;;;;;;;;;;;;;;21.15;49.92;101382.09;2285012;76;50277;-72
2023/05/05 06:32:07;;;;;;;;;;;;;;;21.21;50.00;101382.19;2264216;76;51685;-73
2023/05/05 06:35:09;;;;;;;;;;;;;;;21.31;49.99;101375.20;2276344;77;49992;-72
2023/05/05 06:38:11;;;;;;;;;;;;;;;21.35;49.94;101385.08;2276539;77;50280;-73
2023/05/05 06:41:13;;;;;;;;;;;;;;;21.38;49.89;101376.66;2298380;77;50703;-74
2023/05/05 06:44:15;;;;;;;;;;;;;;;21.37;49.91;101383.88;2251427;77;51016;-73
2023/05/05 06:47:16;;;;;;;;;;;;;;;21.35;49.84;101385.94;2298134;77;51349;-72
2023/05/05 06:50:18;;;;;;;;;;;;;;;21.30;49.81;101378.93;2298353;77;50692;-73
2023/05/05 06:53:20;;;;;;;;;;;;;;;21.30;49.72;101382.97;2276738;77;52179;-73
2023/05/05 06:56:22;;;;;;;;;;;;;;;21.34;49.89;101382.91;2276337;77;51659;-73
2023/05/05 06:59:25;;;;;;;;;;;;;;;21.37;49.85;101385.23;2276314;77;51601;-72
2023/05/05 07:02:26;;;;;;;;;;;;;;;21.41;49.81;101377.15;2294439;76;51614;-72
2023/05/05 07:05:28;;;;;;;;;;;;;;;21.41;49.73;101389.27;2318608;76;51479;-72
2023/05/05 07:08:29;;;;;;;;;;;;;;;21.38;49.68;101386.95;2319855;76;52374;-72
2023/05/05 07:11:31;;;;;;;;;;;;;;;21.36;49.62;101385.42;2294451;76;51389;-73
2023/05/05 07:14:32;;;;;;;;;;;;;;;21.30;49.58;101382.97;2294322;76;50293;-73
2023/05/05 07:17:34;;;;;;;;;;;;;;;21.27;49.49;101388.69;2294602;76;53503;-73
2023/05/05 07:20:36;;;;;;;;;;;;;;;21.27;49.52;101388.69;2320837;76;51105;-73
2023/05/05 07:23:39;;;;;;;;;;;;;;;21.28;49.58;101390.38;2319023;76;50587;-73
2023/05/05 07:26:41;;;;;;;;;;;;;;;21.30;49.62;101403.16;2294824;76;50646;-73
2023/05/05 07:29:42;;;;;;;;;;;;;;;21.31;49.58;101392.70;2317210;76;50699;-73
2023/05/05 07:32:44;;;;;;;;;;;;;;;21.31;49.64;101390.84;2253845;78;51161;-72
2023/05/05 07:35:46;;;;;;;;;;;;;;;21.31;49.61;101390.84;2240687;78;51444;-73
2023/05/05 07:38:47;;;;;;;;;;;;;;;21.33;49.64;101400.09;2270995;78;51491;-73
2023/05/05 07:41:49;;;;;;;;;;;;;;;21.34;49.70;101406.30;2271015;78;51430;-73
2023/05/05 07:44:51;;;;;;;;;;;;;;;21.36;49.61;101400.23;2240720;78;51673;-73
2023/05/05 07:47:53;;;;;;;;;;;;;;;21.36;49.59;101414.52;2271135;78;51573;-72
2023/05/05 07:50:54;;;;;;;;;;;;;;;21.37;49.57;101413.49;2240969;78;51535;-73
2023/05/05 07:53:56;;;;;;;;;;;;;;;21.36;49.59;101411.00;2240876;78;50600;-73
2023/05/05 07:56:58;;;;;;;;;;;;;;;21.35;49.59;101411.52;2270972;78;50216;-74
2023/05/05 07:59:59;;;;;;;;;;;;;;;21.35;49.53;101410.17;2271584;77;50362;-74
2023/05/05 08:03:01;;;;;;;;;;;;;;;21.35;49.41;101407.48;2283885;77;50234;-73
2023/05/05 08:06:07;;;;;;;;;;;;;;;21.35;49.41;101411.52;2270932;78;50666;-73
2023/05/05 08:09:09;;;;;;;;;;;;;;;21.35;49.34;101406.13;2271008;78;50316;-75
2023/05/05 08:12:11;;;;;;;;;;;;;;;21.35;49.32;101403.44;2241355;78;50385;-72
2023/05/05 08:15:12;;;;;;;;;;;;;;;21.35;49.27;101403.44;2270699;78;51466;-73
2023/05/05 08:18:14;;;;;;;;;;;;;;;21.34;49.27;101399.58;2270908;78;50698;-73
2023/05/05 08:21:17;;;;;;;;;;;;;;;21.34;49.28;101392.33;2216808;78;51537;-73
2023/05/05 08:24:18;;;;;;;;;;;;;;;21.31;49.26;101396.73;2240751;78;50761;-72
2023/05/05 08:27:20;;;;;;;;;;;;;;;21.30;49.28;101385.66;2270706;78;50606;-72
2023/05/05 08:30:22;;;;;;;;;;;;;;;21.29;49.29;101391.52;2249444;76;51443;-73
2023/05/05 08:33:23;;;;;;;;;;;;;;;21.28;49.32;101386.34;2289992;77;51387;-72
2023/05/05 08:36:26;;;;;;;;;;;;;;;21.26;49.24;101391.90;2334955;75;51605;-72
2023/05/05 08:39:27;;;;;;;;;;;;;;;21.26;49.26;101390.55;2288957;77;50798;-72
2023/05/05 08:42:32;;;;;;;;;;;;;;;21.24;49.31;101386.37;2314419;76;51498;-73
2023/05/05 08:45:34;;;;;;;;;;;;;;;21.21;49.44;101387.57;2314137;77;50309;-74
2023/05/05 08:48:35;;;;;;;;;;;;;;;21.19;49.52;101384.73;2314382;76;51587;-73
2023/05/05 08:51:38;;;;;;;;;;;;;;;21.20;49.49;101378.35;2308266;77;51440;-74
2023/05/05 08:54:42;;;;;;;;;;;;;;;21.19;49.47;101378.00;2308198;77;50621;-73
2023/05/05 08:57:45;;;;;;;;;;;;;;;21.15;49.51;101375.38;2308287;77;50669;-73
2023/05/05 09:00:46;;;;;;;;;;;;;;;21.16;49.46;101380.55;2277866;77;51227;-73
2023/05/05 09:03:48;;;;;;;;;;;;;;;21.17;49.53;101384.94;2310028;77;50177;-74
2023/05/05 09:06:50;;;;;;;;;;;;;;;21.14;49.50;101384.44;2308290;77;50590;-73
2023/05/05 09:09:51;;;;;;;;;;;;;;;21.13;49.48;101389.52;2308197;77;50293;-73
2023/05/05 09:12:53;;;;;;;;;;;;;;;21.12;49.49;101384.64;2314689;77;50953;-73
2023/05/05 09:15:55;;;;;;;;;;;;;;;21.13;49.54;101384.12;2308063;77;50723;-73
2023/05/05 09:19:03;;;;;;;;;;;;;;;21.11;49.53;101378.91;2314484;77;51298;-73
2023/05/05 09:22:04;;;;;;;;;;;;;;;21.11;49.58;101382.95;2308307;77;50743;-73
2023/05/05 09:25:06;;;;;;;;;;;;;;;21.08;49.58;101388.19;2288466;77;51036;-73
2023/05/05 09:28:09;;;;;;;;;;;;;;;21.08;49.57;101390.88;2314073;77;51416;-72
2023/05/05 09:31:14;;;;;;;;;;;;;;;21.08;49.42;101376.59;2303717;77;50424;-72
2023/05/05 09:34:16;;;;;;;;;;;;;;;21.06;49.43;101375.94;2247319;78;51524;-73
2023/05/05 09:37:19;;;;;;;;;;;;;;;21.03;49.49;101370.41;2248551;78;52493;-72
2023/05/05 09:40:21;;;;;;;;;;;;;;;21.02;49.46;101379.51;2272827;78;51445;-72
2023/05/05 09:43:22;;;;;;;;;;;;;;;20.99;49.54;101374.50;2248709;78;51460;-72
2023/05/05 09:46:24;;;;;;;;;;;;;;;20.98;49.58;101366.08;2279279;78;50364;-73
2023/05/05 09:49:26;;;;;;;;;;;;;;;20.97;49.55;101360.90;2248603;78;51652;-72
2023/05/05 09:52:27;;;;;;;;;;;;;;;20.95;49.65;101366.96;2279647;78;50216;-73
2023/05/05 09:55:34;;;;;;;;;;;;;;;20.94;49.67;101363.95;2279490;78;51631;-72
2023/05/05 09:58:32;;;;;;;;;;;;;;;20.92;49.78;101366.81;2278563;78;22318;-73
2023/05/05 10:01:34;;;;;;;;;;;;;;;20.92;49.84;101377.58;2254375;77;50270;-72
2023/05/05 10:04:35;;;;;;;;;;;;;;;20.94;49.82;101373.38;2317659;77;50622;-73
2023/05/05 10:07:37;;;;;;;;;;;;;;;20.92;49.86;101366.81;2318229;77;50579;-73
2023/05/05 10:10:41;;;;;;;;;;;;;;;20.91;49.93;101373.71;2318273;77;50284;-73
2023/05/05 10:13:42;;;;;;;;;;;;;;;20.90;49.89;101370.19;2286483;77;52457;-73
2023/05/05 10:16:46;;;;;;;;;;;;;;;20.89;49.96;101368.53;2318348;77;50523;-73
2023/05/05 10:19:49;;;;;;;;;;;;;;;20.88;50.03;101365.01;2287056;77;51518;-73
2023/05/05 10:22:52;;;;;;;;;;;;;;;20.87;50.04;101355.77;2318148;77;50678;-73
2023/05/05 10:25:54;;;;;;;;;;;;;;;20.88;49.99;101361.45;2286616;77;52345;-73
2023/05/05 10:28:56;;;;;;;;;;;;;;;20.87;49.90;101354.42;2287016;77;50675;-73
2023/05/05 10:31:58;;;;;;;;;;;;;;;20.87;49.89;101343.66;2279029;77;50056;-74
2023/05/05 10:35:00;;;;;;;;;;;;;;;20.83;49.85;101352.61;2300208;77;51493;-73
2023/05/05 10:38:02;;;;;;;;;;;;;;;20.85;49.86;101350.55;2267415;77;52239;-74
2023/05/05 10:41:03;;;;;;;;;;;;;;;20.86;49.81;101342.00;2300695;77;51433;-71
2023/05/05 10:44:05;;;;;;;;;;;;;;;20.82;49.90;101344.70;2301057;77;51668;-73
2023/05/05 10:47:06;;;;;;;;;;;;;;;20.83;49.85;101342.33;2269006;77;50598;-73
2023/05/05 10:50:16;;;;;;;;;;;;;;;20.81;49.86;101333.12;2269374;77;52406;-73
2023/05/05 10:53:22;;;;;;;;;;;;;;;20.82;49.88;101338.81;2301508;77;49930;-73
2023/05/05 10:56:28;;;;;;;;;;;;;;;20.84;49.92;101332.75;2244009;77;51669;-73
2023/05/05 10:59:34;;;;;;;;;;;;;;;20.85;49.91;101333.58;2302123;77;50605;-73
2023/05/05 11:02:36;;;;;;;;;;;;;;;20.83;49.97;101337.81;2277840;77;50920;-73
2023/05/05 11:05:38;;;;;;;;;;;;;;;20.82;49.94;101333.44;2300587;77;50627;-73
2023/05/05 11:08:41;;;;;;;;;;;;;;;20.82;49.93;101325.88;2267071;77;50754;-73
2023/05/05 11:12:01;;;;;;;;;;;;;;;20.82;49.95;101319.16;2301683;77;50776;-71
2023/05/05 11:15:21;;;;;;;;;;;;;;;20.81;49.99;101312.95;2243496;77;51782;-73
2023/05/05 11:18:28;;;;;;;;;;;;;;;20.82;49.98;101312.44;2300195;77;50639;-73
2023/05/05 11:21:30;;;;;;;;;;;;;;;20.80;49.97;101311.25;2296318;77;50238;-72
2023/05/05 11:24:32;;;;;;;;;;;;;;;20.80;50.05;101306.39;2299750;77;51442;-72
2023/05/05 11:27:39;;;;;;;;;;;;;;;20.80;50.08;101303.70;2266262;77;50642;-72
2023/05/05 11:30:57;;;;;;;;;;;;;;;20.79;50.06;101309.59;2288262;77;50642;-72
2023/05/05 11:34:17;;;;;;;;;;;;;;;20.78;50.14;101309.77;2307468;76;51518;-72
2023/05/05 11:37:19;;;;;;;;;;;;;;;20.76;50.16;101303.24;2307721;77;51449;-72
2023/05/05 11:40:21;;;;;;;;;;;;;;;20.77;50.14;101299.52;2250337;77;50034;-72
2023/05/05 11:43:22;;;;;;;;;;;;;;;20.77;50.15;101296.00;2307966;77;50645;-72
2023/05/05 11:46:24;;;;;;;;;;;;;;;20.76;50.21;101293.00;2307695;77;51581;-72
2023/05/05 11:49:26;;;;;;;;;;;;;;;20.75;50.19;101291.31;2307751;77;50464;-72
2023/05/05 11:52:28;;;;;;;;;;;;;;;20.75;50.22;101284.07;2276425;77;51691;-73
2023/05/05 11:55:29;;;;;;;;;;;;;;;20.77;50.20;101279.87;2259946;77;51504;-73
2023/05/05 11:58:31;;;;;;;;;;;;;;;20.76;50.25;101275.52;2275291;77;50720;-73
2023/05/05 12:01:32;;;;;;;;;;;;;;;20.78;50.21;101278.84;2307695;77;51424;-73
2023/05/05 12:04:34;;;;;;;;;;;;;;;20.78;50.22;101266.73;2307797;77;51406;-72
2023/05/05 12:07:36;;;;;;;;;;;;;;;20.78;50.20;101269.42;2275391;77;51469;-73
2023/05/05 12:10:37;;;;;;;;;;;;;;;20.75;50.29;101272.48;2308090;77;51394;-72
2023/05/05 12:13:40;;;;;;;;;;;;;;;20.76;50.26;101270.14;2308312;77;50703;-73
2023/05/05 12:16:43;;;;;;;;;;;;;;;20.75;50.30;101260.38;2275657;77;50331;-72
2023/05/05 12:19:46;;;;;;;;;;;;;;;20.72;50.36;101257.55;2305544;77;50783;-73
2023/05/05 12:22:48;;;;;;;;;;;;;;;20.72;50.37;101248.65;2302370;77;50398;-72
2023/05/05 12:25:50;;;;;;;;;;;;;;;20.72;50.38;101254.03;2265194;78;51485;-72
2023/05/05 12:28:51;;;;;;;;;;;;;;;20.70;50.39;101246.64;2229396;78;51722;-73
2023/05/05 12:31:53;;;;;;;;;;;;;;;20.72;50.36;101236.03;2254517;77;50225;-73
2023/05/05 12:34:56;;;;;;;;;;;;;;;20.70;50.43;101239.92;2263962;78;50370;-72
2023/05/05 12:37:57;;;;;;;;;;;;;;;20.70;50.43;101243.95;2288129;78;50623;-73
2023/05/05 12:40:59;;;;;;;;;;;;;;;20.70;50.45;101242.61;2264209;78;51270;-72
2023/05/05 12:44:05;;;;;;;;;;;;;;;20.70;50.41;101246.64;2287859;77;50318;-72
2023/05/05 12:47:05;;;;;;;;;;;;;;;20.71;50.41;101242.95;2286634;77;22277;-72
2023/05/05 12:50:06;;;;;;;;;;;;;;;20.71;50.38;101242.95;2287928;78;51398;-72
2023/05/05 12:53:08;;;;;;;;;;;;;;;20.71;50.35;101234.89;2264183;78;51480;-72
2023/05/05 12:56:30;;;;;;;;;;;;;;;20.70;50.36;101237.23;2288045;78;50329;-73
2023/05/05 12:59:31;;;;;;;;;;;;;;;20.70;50.42;101234.55;2257812;78;50737;-74
2023/05/05 13:02:33;;;;;;;;;;;;;;;20.68;50.67;101234.75;2247324;78;51387;-73
2023/05/05 13:05:35;;;;;;;;;;;;;;;20.68;50.86;101232.05;2223159;79;51703;-73
2023/05/05 13:08:43;;;;;;;;;;;;;;;20.68;50.92;101232.54;2248997;79;51400;-73
2023/05/05 13:11:44;;;;;;;;;;;;;;;20.68;50.95;101225.81;2239707;78;52368;-73
2023/05/05 13:14:46;;;;;;;;;;;;;;;20.68;50.98;101217.27;2238657;79;51670;-72
2023/05/05 13:17:48;;;;;;;;;;;;;;;20.69;51.05;101220.78;2208708;78;50015;-72
2023/05/05 13:20:49;;;;;;;;;;;;;;;20.68;51.07;101211.89;2251925;78;51515;-72
2023/05/05 13:23:51;;;;;;;;;;;;;;;20.68;51.06;101208.34;2237034;78;50538;-73
2023/05/05 13:26:52;;;;;;;;;;;;;;;20.71;51.05;101202.62;2241181;79;51347;-73
2023/05/05 13:29:54;;;;;;;;;;;;;;;20.69;51.13;101202.80;2247053;76;50085;-72
2023/05/05 13:32:56;;;;;;;;;;;;;;;20.69;51.09;101196.58;2279662;76;50105;-72
2023/05/05 13:35:57;;;;;;;;;;;;;;;20.69;51.12;101188.00;2293636;76;49889;-73
2023/05/05 13:38:59;;;;;;;;;;;;;;;20.75;51.01;101186.42;2280457;77;50665;-72
2023/05/05 13:42:01;;;;;;;;;;;;;;;20.72;50.93;101181.42;2263888;77;52417;-73
2023/05/05 13:45:02;;;;;;;;;;;;;;;20.70;51.04;101183.45;2259495;78;51362;-72
2023/05/05 13:48:04;;;;;;;;;;;;;;;20.68;51.23;101184.14;2281151;76;50584;-72
2023/05/05 13:51:05;;;;;;;;;;;;;;;20.67;51.24;101179.27;2311053;76;50171;-72
2023/05/05 13:54:07;;;;;;;;;;;;;;;20.65;51.36;101170.06;2289505;76;49915;-73
2023/05/05 13:57:10;;;;;;;;;;;;;;;20.67;51.29;101172.55;2287431;77;50371;-73
2023/05/05 14:00:12;;;;;;;;;;;;;;;20.66;51.33;101166.34;2287294;77;51509;-71
2023/05/05 14:03:13;;;;;;;;;;;;;;;20.67;51.41;101161.80;2287339;76;50326;-71
2023/05/05 14:06:15;;;;;;;;;;;;;;;20.68;51.34;101158.59;2272383;78;51002;-72
2023/05/05 14:09:16;;;;;;;;;;;;;;;20.70;51.30;101154.70;2272678;78;52277;-72
2023/05/05 14:12:18;;;;;;;;;;;;;;;20.69;51.44;101153.05;2298167;77;50299;-73
2023/05/05 14:15:20;;;;;;;;;;;;;;;20.70;51.48;101142.59;2298145;77;50174;-72
2023/05/05 14:18:21;;;;;;;;;;;;;;;20.69;51.53;101140.94;2298254;76;51653;-72
2023/05/05 14:21:23;;;;;;;;;;;;;;;20.69;51.56;101136.91;2298370;77;50315;-72
2023/05/05 14:24:24;;;;;;;;;;;;;;;20.69;51.56;101131.53;2299550;76;50196;-71
2023/05/05 14:27:26;;;;;;;;;;;;;;;20.71;51.48;101134.05;2326250;76;51403;-72
2023/05/05 14:30:28;;;;;;;;;;;;;;;20.72;51.51;101135.70;2273891;76;51027;-72
2023/05/05 14:33:29;;;;;;;;;;;;;;;20.71;51.50;101132.70;2327921;76;51450;-73
2023/05/05 14:36:31;;;;;;;;;;;;;;;20.71;51.57;101130.84;2297380;76;50604;-73
2023/05/05 14:39:32;;;;;;;;;;;;;;;20.71;51.59;101126.80;2297467;76;50692;-72
2023/05/05 14:42:34;;;;;;;;;;;;;;;20.71;51.63;101128.16;2297446;76;51158;-72
2023/05/05 14:45:36;;;;;;;;;;;;;;;20.71;51.62;101130.02;2297387;76;50282;-72
2023/05/05 14:48:37;;;;;;;;;;;;;;;20.71;51.74;101123.29;2297603;76;50719;-71
2023/05/05 14:51:39;;;;;;;;;;;;;;;20.71;51.77;101123.29;2330259;76;50622;-72
2023/05/05 14:54:41;;;;;;;;;;;;;;;20.70;51.90;101113.02;2262101;76;51219;-72
2023/05/05 14:57:42;;;;;;;;;;;;;;;20.70;51.69;101115.70;2267036;76;51149;-71
2023/05/05 15:00:44;;;;;;;;;;;;;;;20.70;51.71;101117.57;2323285;76;50594;-72
2023/05/05 15:03:46;;;;;;;;;;;;;;;20.70;51.68;101118.39;2239664;78;50370;-72
2023/05/05 15:06:47;;;;;;;;;;;;;;;20.70;51.79;101124.29;2229627;78;51618;-72
2023/05/05 15:09:49;;;;;;;;;;;;;;;20.69;51.86;101110.53;2252809;78;51360;-72
2023/05/05 15:12:51;;;;;;;;;;;;;;;20.68;51.83;101115.56;2264041;78;51254;-72
2023/05/05 15:15:53;;;;;;;;;;;;;;;20.70;51.76;101116.22;2252513;78;50231;-72
2023/05/05 15:18:55;;;;;;;;;;;;;;;20.71;51.75;101113.88;2240495;76;51158;-72
2023/05/05 15:21:57;;;;;;;;;;;;;;;20.69;51.79;101108.67;2325777;76;51576;-72
2023/05/05 15:24:58;;;;;;;;;;;;;;;20.70;51.83;101114.87;2331460;76;51613;-72
2023/05/05 15:28:00;;;;;;;;;;;;;;;20.71;51.76;101107.16;2331721;76;51396;-73
2023/05/05 15:31:02;;;;;;;;;;;;;;;20.70;51.76;101104.95;2311639;76;52318;-72
2023/05/05 15:34:03;;;;;;;;;;;;;;;20.70;51.78;101104.95;2300506;76;51529;-72
2023/05/05 15:37:05;;;;;;;;;;;;;;;20.70;51.76;101094.20;2340919;76;51355;-72
2023/05/05 15:40:07;;;;;;;;;;;;;;;20.71;51.76;101101.78;2304523;76;51392;-72